Time;durP1;ratioP1;P1;durP2;ratioP2;P2;SDS_P1;SDS_P2;PMS_P1;PMS_P2;Temp;Humidity;BMP_temperature;BMP_pressure;BME280_temperature;BME280_humidity;BME280_pressure;Samples;Min_cycle;Max_cycle;Signal;HPM_P1;HPM_P2
2023/06/04 00:00:27;;;;;;;3.55;2.05;;;12.30;99.90;;;;;;5094379;28;20056;-63
2023/06/04 00:02:53;;;;;;;4.65;2.42;;;12.30;99.90;;;;;;5094081;28;20048;-63
2023/06/04 00:05:21;;;;;;;3.75;2.25;;;12.30;99.90;;;;;;5094335;28;20048;-62
2023/06/04 00:07:47;;;;;;;3.22;2.30;;;12.30;99.90;;;;;;5094092;28;20040;-62
2023/06/04 00:10:13;;;;;;;3.20;2.22;;;12.30;99.90;;;;;;5092964;28;20110;-62
2023/06/04 00:12:40;;;;;;;3.75;2.38;;;12.30;99.90;;;;;;5093553;28;20380;-62
2023/06/04 00:15:07;;;;;;;3.47;2.13;;;12.20;99.90;;;;;;5094160;28;20043;-62
2023/06/04 00:17:33;;;;;;;5.15;2.72;;;12.20;99.90;;;;;;5093996;28;20044;-62
2023/06/04 00:19:59;;;;;;;4.80;2.67;;;12.20;99.90;;;;;;5094068;28;20064;-61
2023/06/04 00:22:26;;;;;;;4.18;2.50;;;12.10;99.90;;;;;;5093716;28;20120;-65
2023/06/04 00:24:52;;;;;;;5.03;2.97;;;12.10;99.90;;;;;;5094085;28;20039;-65
2023/06/04 00:27:18;;;;;;;4.63;2.72;;;12.10;99.90;;;;;;5093794;28;20051;-64
2023/06/04 00:29:44;;;;;;;4.00;2.58;;;12.10;99.90;;;;;;5093518;28;20093;-64
2023/06/04 00:32:11;;;;;;;5.97;2.88;;;12.10;99.90;;;;;;5093901;28;20282;-64
2023/06/04 00:34:37;;;;;;;4.70;2.85;;;12.00;99.90;;;;;;5092062;28;20380;-62
2023/06/04 00:37:03;;;;;;;3.40;2.28;;;12.00;99.90;;;;;;5093626;28;20490;-63
2023/06/04 00:39:30;;;;;;;3.97;2.88;;;11.90;99.90;;;;;;5093806;28;20105;-62
2023/06/04 00:41:56;;;;;;;4.63;2.40;;;11.90;99.90;;;;;;5093704;28;20425;-64
2023/06/04 00:44:24;;;;;;;6.25;3.00;;;11.80;99.90;;;;;;5093186;28;20040;-63
2023/06/04 00:46:53;;;;;;;4.00;2.50;;;11.80;99.90;;;;;;5093680;28;20043;-62
2023/06/04 00:49:20;;;;;;;5.78;2.80;;;11.80;99.90;;;;;;5093238;28;20048;-63
2023/06/04 00:51:46;;;;;;;4.57;3.00;;;11.70;99.90;;;;;;5093346;28;20059;-63
2023/06/04 00:54:13;;;;;;;4.28;2.85;;;11.70;99.90;;;;;;5092987;28;20109;-63
2023/06/04 00:56:40;;;;;;;7.38;2.85;;;11.60;99.90;;;;;;5093554;28;20075;-62
2023/06/04 00:59:08;;;;;;;3.33;2.47;;;11.70;99.90;;;;;;5093214;28;20059;-64
2023/06/04 01:01:44;;;;;;;5.70;2.90;;;11.60;99.90;;;;;;5093249;28;20058;-65
2023/06/04 01:04:30;;;;;;;4.47;2.95;;;11.60;99.90;;;;;;5091669;28;20119;-63
2023/06/04 01:07:00;;;;;;;7.28;3.53;;;11.60;99.90;;;;;;5092430;28;20407;-64
2023/06/04 01:09:27;;;;;;;5.13;2.80;;;11.50;99.90;;;;;;5092997;28;20483;-64
2023/06/04 01:11:54;;;;;;;4.70;3.20;;;11.50;99.90;;;;;;5093009;28;20469;-65
2023/06/04 01:14:21;;;;;;;4.93;2.67;;;11.50;99.90;;;;;;5092830;28;20043;-64
2023/06/04 01:17:05;;;;;;;7.15;3.03;;;11.50;99.90;;;;;;5092795;28;20047;-65
2023/06/04 01:19:51;;;;;;;7.93;3.25;;;11.40;99.90;;;;;;5072803;28;20044;-64
2023/06/04 01:22:37;;;;;;;5.32;3.22;;;11.40;99.90;;;;;;5070954;28;20388;-62
2023/06/04 01:25:20;;;;;;;5.00;2.90;;;11.40;99.90;;;;;;5072807;28;20139;-64
2023/06/04 01:27:52;;;;;;;4.05;3.00;;;11.40;99.90;;;;;;5079511;28;20088;-64
2023/06/04 01:30:23;;;;;;;7.65;3.47;;;11.40;99.90;;;;;;5092569;28;20044;-63
2023/06/04 01:32:50;;;;;;;4.63;2.85;;;11.30;99.90;;;;;;5092544;28;20451;-63
2023/06/04 01:35:16;;;;;;;5.70;3.17;;;11.30;99.90;;;;;;5091480;28;20128;-62
2023/06/04 01:37:42;;;;;;;6.22;3.20;;;11.30;99.90;;;;;;5092133;28;20425;-63
2023/06/04 01:40:09;;;;;;;5.25;3.13;;;11.30;99.90;;;;;;5092313;28;20479;-62
2023/06/04 01:42:35;;;;;;;5.63;3.10;;;11.30;99.90;;;;;;5092146;28;20044;-62
2023/06/04 01:45:01;;;;;;;5.40;3.33;;;11.30;99.90;;;;;;5092034;28;20107;-63
2023/06/04 01:47:27;;;;;;;7.00;3.13;;;11.20;99.90;;;;;;5090873;28;20051;-63
2023/06/04 01:49:54;;;;;;;6.03;3.20;;;11.20;99.90;;;;;;5092457;28;20039;-63
2023/06/04 01:52:22;;;;;;;8.23;3.58;;;11.20;99.90;;;;;;5092115;28;20036;-63
2023/06/04 01:54:52;;;;;;;5.43;3.60;;;11.10;99.90;;;;;;5092044;28;20474;-63
2023/06/04 01:57:22;;;;;;;5.40;3.38;;;11.10;99.90;;;;;;5092399;28;20052;-64
2023/06/04 01:59:48;;;;;;;6.47;3.40;;;11.10;99.90;;;;;;5092636;28;20056;-64
2023/06/04 02:02:15;;;;;;;8.82;3.88;;;11.10;99.90;;;;;;5091916;28;20044;-64
2023/06/04 02:04:41;;;;;;;7.57;3.78;;;11.00;99.90;;;;;;5092037;28;20047;-62
2023/06/04 02:07:13;;;;;;;6.78;3.63;;;11.00;99.90;;;;;;5091982;28;20122;-62
2023/06/04 02:09:40;;;;;;;6.32;3.22;;;11.00;99.90;;;;;;5092182;28;20040;-63
2023/06/04 02:12:07;;;;;;;5.78;3.80;;;11.00;99.90;;;;;;5091689;28;20048;-65
2023/06/04 02:14:33;;;;;;;5.47;3.70;;;11.00;99.90;;;;;;5092128;28;20453;-64
2023/06/04 02:17:00;;;;;;;6.32;4.00;;;10.90;99.90;;;;;;5091955;28;20052;-64
2023/06/04 02:19:27;;;;;;;7.63;3.88;;;10.90;99.90;;;;;;5091775;28;20109;-64
2023/06/04 02:21:53;;;;;;;5.97;3.55;;;10.90;99.90;;;;;;5092192;28;20366;-63
2023/06/04 02:24:20;;;;;;;6.15;3.78;;;10.80;99.90;;;;;;5091607;28;20075;-65
2023/06/04 02:26:46;;;;;;;6.75;3.67;;;10.90;99.90;;;;;;5091776;28;20449;-64
2023/06/04 02:29:13;;;;;;;9.18;4.32;;;10.80;99.90;;;;;;5090567;28;20112;-64
2023/06/04 02:31:39;;;;;;;7.07;3.45;;;10.80;99.90;;;;;;5092223;28;20127;-64
2023/06/04 02:34:05;;;;;;;8.85;4.18;;;10.80;99.90;;;;;;5091406;28;20048;-64
2023/06/04 02:36:31;;;;;;;8.30;4.10;;;10.80;99.90;;;;;;5091718;28;20044;-64
2023/06/04 02:38:58;;;;;;;7.80;4.20;;;10.70;99.90;;;;;;5091596;28;20105;-64
2023/06/04 02:41:25;;;;;;;5.90;3.85;;;10.70;99.90;;;;;;5091760;28;20380;-64
2023/06/04 02:43:51;;;;;;;7.97;4.50;;;10.70;99.90;;;;;;5091638;28;20048;-63
2023/06/04 02:46:17;;;;;;;9.98;4.20;;;10.70;99.90;;;;;;5091725;28;20064;-65
2023/06/04 02:48:44;;;;;;;8.80;4.40;;;10.60;99.90;;;;;;5091555;28;20066;-65
2023/06/04 02:51:11;;;;;;;7.90;3.92;;;10.60;99.90;;;;;;5091774;28;20055;-64
2023/06/04 02:53:37;;;;;;;7.82;4.25;;;10.60;99.90;;;;;;5091443;28;20048;-63
2023/06/04 02:56:04;;;;;;;8.63;4.38;;;10.60;99.90;;;;;;5091809;28;20040;-62
2023/06/04 02:58:31;;;;;;;10.70;4.53;;;10.60;99.90;;;;;;5093562;28;20123;-62
2023/06/04 03:00:57;;;;;;;7.45;4.45;;;10.60;99.90;;;;;;5095921;28;20059;-62
2023/06/04 03:03:23;;;;;;;9.75;4.13;;;10.60;99.90;;;;;;5095334;28;20113;-62
2023/06/04 03:05:50;;;;;;;9.10;4.53;;;10.60;99.90;;;;;;5095475;28;20044;-62
2023/06/04 03:08:16;;;;;;;6.78;4.20;;;10.50;99.90;;;;;;5095173;28;20052;-63
2023/06/04 03:10:42;;;;;;;8.93;4.70;;;10.60;99.90;;;;;;5095501;28;20048;-62
2023/06/04 03:13:08;;;;;;;6.88;4.20;;;10.50;99.90;;;;;;5094777;28;20114;-62
2023/06/04 03:15:38;;;;;;;10.18;4.32;;;10.50;99.90;;;;;;5095383;28;20047;-63
2023/06/04 03:18:05;;;;;;;9.55;4.60;;;10.50;99.90;;;;;;5094701;28;20475;-63
2023/06/04 03:20:38;;;;;;;10.65;4.75;;;10.50;99.90;;;;;;5095254;28;20066;-64
2023/06/04 03:23:04;;;;;;;9.88;5.22;;;10.50;99.90;;;;;;5094893;28;20367;-64
2023/06/04 03:25:30;;;;;;;9.45;4.80;;;10.50;99.90;;;;;;5095047;28;20048;-63
2023/06/04 03:27:57;;;;;;;10.88;5.15;;;10.50;99.90;;;;;;5094820;28;20101;-63
2023/06/04 03:30:23;;;;;;;10.00;5.50;;;10.40;99.90;;;;;;5094836;28;20048;-63
2023/06/04 03:32:49;;;;;;;7.80;4.70;;;10.50;99.90;;;;;;5094598;28;20055;-63
2023/06/04 03:35:15;;;;;;;12.10;5.07;;;10.50;99.90;;;;;;5094725;28;20056;-63
2023/06/04 03:37:42;;;;;;;9.73;5.28;;;10.40;99.90;;;;;;5095046;28;20051;-64
2023/06/04 03:40:08;;;;;;;9.82;5.95;;;10.40;99.90;;;;;;5094859;28;20059;-63
2023/06/04 03:42:35;;;;;;;9.75;5.10;;;10.40;99.90;;;;;;5094497;28;20408;-63
2023/06/04 03:45:01;;;;;;;11.38;5.97;;;10.40;99.90;;;;;;5094479;28;20044;-63
2023/06/04 03:47:27;;;;;;;13.45;5.30;;;10.40;99.90;;;;;;5094466;28;20064;-63
2023/06/04 03:49:53;;;;;;;9.00;5.25;;;10.50;99.90;;;;;;5094875;28;20093;-62
2023/06/04 03:52:20;;;;;;;9.85;5.63;;;10.50;99.90;;;;;;5094230;28;20094;-62
2023/06/04 03:54:46;;;;;;;10.13;5.40;;;10.40;99.90;;;;;;5094588;28;20052;-63
2023/06/04 03:57:12;;;;;;;9.77;4.97;;;10.40;99.90;;;;;;5094011;28;20408;-63
2023/06/04 03:59:38;;;;;;;8.30;5.38;;;10.50;99.90;;;;;;5094231;28;20517;-63
2023/06/04 04:02:05;;;;;;;12.13;5.72;;;10.50;99.90;;;;;;5093986;28;20113;-63
2023/06/04 04:04:33;;;;;;;10.02;5.50;;;10.50;99.90;;;;;;5094280;28;20074;-63
2023/06/04 04:07:00;;;;;;;11.32;5.13;;;10.50;99.90;;;;;;5094604;28;20052;-63
2023/06/04 04:09:27;;;;;;;9.80;5.30;;;10.50;99.90;;;;;;5093895;28;20045;-62
2023/06/04 04:11:53;;;;;;;10.43;5.50;;;10.60;99.90;;;;;;5092903;28;20048;-63
2023/06/04 04:14:19;;;;;;;10.60;5.75;;;10.50;99.90;;;;;;5094215;28;20048;-63
2023/06/04 04:16:46;;;;;;;11.98;5.40;;;10.60;99.90;;;;;;5094337;28;20052;-65
2023/06/04 04:19:13;;;;;;;10.73;5.68;;;10.60;99.90;;;;;;5093701;28;20400;-63
2023/06/04 04:21:39;;;;;;;7.85;4.80;;;10.60;99.90;;;;;;5093621;28;20369;-63
2023/06/04 04:24:06;;;;;;;11.30;5.03;;;10.70;99.90;;;;;;5093621;28;20048;-63
2023/06/04 04:26:34;;;;;;;12.02;5.00;;;10.80;99.90;;;;;;5094024;28;20056;-62
2023/06/04 04:29:00;;;;;;;10.50;4.88;;;10.80;99.90;;;;;;5093575;28;20064;-63
2023/06/04 04:31:30;;;;;;;10.05;4.78;;;10.80;99.90;;;;;;5093955;28;20051;-63
2023/06/04 04:33:56;;;;;;;12.00;5.13;;;10.90;99.90;;;;;;5093731;28;20048;-63
2023/06/04 04:36:23;;;;;;;14.57;5.97;;;10.90;99.90;;;;;;5094807;28;20048;-64
2023/06/04 04:38:53;;;;;;;9.93;4.82;;;11.00;99.90;;;;;;5094561;28;20048;-63
2023/06/04 04:41:23;;;;;;;12.02;4.72;;;11.00;99.90;;;;;;5094005;28;20078;-63
2023/06/04 04:43:49;;;;;;;8.00;5.20;;;11.00;99.90;;;;;;5093274;28;20105;-64
2023/06/04 04:46:16;;;;;;;8.52;5.28;;;11.10;99.90;;;;;;5093735;28;20105;-63
2023/06/04 04:48:45;;;;;;;11.95;5.22;;;11.10;99.90;;;;;;5093411;28;20349;-63
2023/06/04 04:51:12;;;;;;;9.13;5.40;;;11.30;99.90;;;;;;5092299;28;20051;-64
2023/06/04 04:53:38;;;;;;;7.55;5.15;;;11.70;99.90;;;;;;5075411;28;20043;-64
2023/06/04 04:56:05;;;;;;;14.18;5.57;;;12.60;99.90;;;;;;5093582;28;20048;-63
2023/06/04 04:58:31;;;;;;;8.82;4.72;;;13.50;99.90;;;;;;5093161;28;20101;-63
2023/06/04 05:00:57;;;;;;;8.38;4.47;;;14.30;99.90;;;;;;5093067;28;20472;-63
2023/06/04 05:03:24;;;;;;;11.18;5.00;;;14.90;99.90;;;;;;5092111;28;20052;-65
2023/06/04 05:05:50;;;;;;;10.23;4.65;;;15.30;99.90;;;;;;5093159;28;20062;-62
2023/06/04 05:08:17;;;;;;;9.35;4.55;;;15.70;99.90;;;;;;5092908;28;20068;-64
2023/06/04 05:10:43;;;;;;;13.60;4.85;;;16.10;99.90;;;;;;5092864;28;20044;-63
2023/06/04 05:13:10;;;;;;;9.48;4.47;;;16.60;99.90;;;;;;5092747;28;20052;-63
2023/06/04 05:15:39;;;;;;;9.65;4.43;;;16.90;99.90;;;;;;5093164;28;20051;-65
2023/06/04 05:18:05;;;;;;;10.45;4.78;;;17.10;99.90;;;;;;5091759;28;20052;-63
2023/06/04 05:20:32;;;;;;;12.07;5.00;;;17.60;99.90;;;;;;5092399;28;20117;-65
2023/06/04 05:22:58;;;;;;;9.20;4.25;;;17.80;99.90;;;;;;5092471;28;20044;-63
2023/06/04 05:25:26;;;;;;;8.73;4.72;;;18.00;99.90;;;;;;5093128;28;20044;-63
2023/06/04 05:27:54;;;;;;;8.85;4.55;;;18.10;99.90;;;;;;5092984;28;20331;-64
2023/06/04 05:30:20;;;;;;;9.15;4.03;;;18.10;99.90;;;;;;5092489;28;20097;-62
2023/06/04 05:32:46;;;;;;;10.43;5.20;;;18.20;99.90;;;;;;5092449;28;20051;-64
2023/06/04 05:35:13;;;;;;;9.20;4.32;;;18.00;99.90;;;;;;5092592;28;20044;-62
2023/06/04 05:37:41;;;;;;;8.73;4.03;;;18.10;99.90;;;;;;5092598;28;20040;-64
2023/06/04 05:40:09;;;;;;;7.90;4.75;;;18.40;99.90;;;;;;5091818;28;20353;-65
2023/06/04 05:42:36;;;;;;;8.85;4.78;;;18.60;99.90;;;;;;5092391;28;20134;-64
2023/06/04 05:45:02;;;;;;;7.68;4.65;;;18.50;99.90;;;;;;5091352;28;20118;-64
2023/06/04 05:47:29;;;;;;;8.95;4.28;;;18.90;99.90;;;;;;5091804;28;20101;-65
2023/06/04 05:49:56;;;;;;;8.30;4.22;;;19.30;99.90;;;;;;5092101;28;20602;-63
2023/06/04 05:52:23;;;;;;;9.13;4.07;;;19.40;99.90;;;;;;5091966;28;20480;-63
2023/06/04 05:54:50;;;;;;;10.10;4.65;;;19.70;99.90;;;;;;5092442;28;20056;-63
2023/06/04 05:57:16;;;;;;;8.30;4.80;;;19.80;99.90;;;;;;5092422;28;20056;-64
2023/06/04 05:59:42;;;;;;;8.18;3.97;;;19.60;99.90;;;;;;5091317;28;20051;-63
2023/06/04 06:02:08;;;;;;;7.72;4.32;;;19.90;99.90;;;;;;5082628;28;20036;-63
2023/06/04 06:04:35;;;;;;;8.68;4.20;;;20.20;99.90;;;;;;5080605;28;20044;-63
2023/06/04 06:07:01;;;;;;;11.13;5.05;;;20.40;99.90;;;;;;5082362;28;20053;-64
2023/06/04 06:09:27;;;;;;;8.05;4.43;;;20.40;99.90;;;;;;5079440;28;20395;-64
2023/06/04 06:11:53;;;;;;;12.43;4.72;;;20.30;99.90;;;;;;5082621;28;20063;-64
2023/06/04 06:14:20;;;;;;;8.90;4.70;;;20.20;99.90;;;;;;5080967;28;20353;-63
2023/06/04 06:16:46;;;;;;;7.88;4.30;;;20.10;99.90;;;;;;5081217;28;20384;-63
2023/06/04 06:19:13;;;;;;;8.25;4.22;;;20.10;99.90;;;;;;5082321;28;20048;-63
2023/06/04 06:21:39;;;;;;;8.65;4.60;;;20.50;99.90;;;;;;5080037;28;20044;-64
2023/06/04 06:24:05;;;;;;;9.88;4.50;;;20.70;99.90;;;;;;5081797;28;20046;-63
2023/06/04 06:26:32;;;;;;;9.75;4.80;;;20.80;99.90;;;;;;5082375;28;20048;-63
2023/06/04 06:28:58;;;;;;;7.70;3.72;;;20.70;99.90;;;;;;5079683;28;20153;-63
2023/06/04 06:31:25;;;;;;;6.57;3.60;;;21.40;99.90;;;;;;5083005;28;20109;-62
2023/06/04 06:33:52;;;;;;;9.82;4.40;;;21.50;99.90;;;;;;5085965;28;20484;-63
2023/06/04 06:36:18;;;;;;;8.27;4.32;;;21.80;99.90;;;;;;5084319;28;20045;-63
2023/06/04 06:38:45;;;;;;;8.25;4.15;;;21.80;99.90;;;;;;5088468;28;20056;-65
2023/06/04 06:41:12;;;;;;;6.68;3.85;;;21.70;99.90;;;;;;5086314;28;20072;-63
2023/06/04 06:43:39;;;;;;;8.35;4.15;;;21.60;99.90;;;;;;5085224;28;20400;-63
2023/06/04 06:46:05;;;;;;;6.53;4.10;;;21.50;99.90;;;;;;5095859;28;20444;-63
2023/06/04 06:48:31;;;;;;;8.52;4.10;;;21.40;99.90;;;;;;5095831;28;20040;-64
2023/06/04 06:50:58;;;;;;;7.13;4.07;;;21.40;99.90;;;;;;5095752;28;20040;-64
2023/06/04 06:53:24;;;;;;;6.80;3.78;;;21.40;99.90;;;;;;5095613;28;20063;-63
2023/06/04 06:55:50;;;;;;;8.18;3.60;;;21.10;99.90;;;;;;5095834;28;20151;-63
2023/06/04 06:58:16;;;;;;;7.60;4.00;;;20.30;99.90;;;;;;5095176;28;20511;-63
2023/06/04 07:00:43;;;;;;;6.03;4.28;;;19.50;99.90;;;;;;5095555;28;20483;-63
2023/06/04 07:03:09;;;;;;;9.60;4.03;;;19.10;99.90;;;;;;5095260;28;20044;-64
2023/06/04 07:05:35;;;;;;;9.30;4.07;;;18.90;99.90;;;;;;5095362;28;20048;-63
2023/06/04 07:08:02;;;;;;;6.68;4.60;;;18.90;99.90;;;;;;5095522;28;20108;-62
2023/06/04 07:10:29;;;;;;;6.78;3.72;;;19.00;99.90;;;;;;5095474;28;20051;-64
2023/06/04 07:12:56;;;;;;;6.45;3.70;;;18.90;99.90;;;;;;5094130;28;20040;-64
2023/06/04 07:15:22;;;;;;;8.48;4.05;;;19.10;99.90;;;;;;5084288;28;20122;-63
2023/06/04 07:17:48;;;;;;;6.38;4.20;;;19.10;99.90;;;;;;5086435;28;20052;-63
2023/06/04 07:20:15;;;;;;;7.80;4.13;;;18.80;99.90;;;;;;5083702;28;20552;-63
2023/06/04 07:22:42;;;;;;;8.77;3.95;;;18.80;99.90;;;;;;5084878;28;20048;-62
2023/06/04 07:25:08;;;;;;;7.53;4.13;;;18.90;99.90;;;;;;5084613;28;20366;-62
2023/06/04 07:27:35;;;;;;;6.80;4.18;;;19.00;99.90;;;;;;5085836;28;20050;-63
2023/06/04 07:30:01;;;;;;;6.82;3.60;;;19.00;99.90;;;;;;5084910;28;20044;-63
2023/06/04 07:32:27;;;;;;;10.18;4.18;;;19.00;99.90;;;;;;5084752;28;20041;-63
2023/06/04 07:34:53;;;;;;;8.48;3.90;;;19.10;99.90;;;;;;5083571;28;20113;-63
2023/06/04 07:37:20;;;;;;;7.07;3.90;;;19.00;99.90;;;;;;5084482;28;20135;-63
2023/06/04 07:39:46;;;;;;;5.85;3.22;;;19.00;99.90;;;;;;5083469;28;20045;-62
2023/06/04 07:42:13;;;;;;;9.80;3.75;;;19.30;99.90;;;;;;5083211;28;20410;-63
2023/06/04 07:44:39;;;;;;;8.25;4.05;;;19.60;99.90;;;;;;5082745;28;20473;-63
2023/06/04 07:47:06;;;;;;;6.50;3.20;;;19.70;99.90;;;;;;5084368;28;20039;-62
2023/06/04 07:49:32;;;;;;;7.00;3.22;;;19.70;99.90;;;;;;5084911;28;20036;-62
2023/06/04 07:51:58;;;;;;;7.38;2.78;;;19.60;99.90;;;;;;5088176;28;20368;-64
2023/06/04 07:54:25;;;;;;;6.10;3.28;;;20.00;99.90;;;;;;5094924;28;20059;-65
2023/06/04 07:56:55;;;;;;;9.10;2.97;;;20.00;99.90;;;;;;5093837;28;20048;-63
2023/06/04 07:59:22;;;;;;;3.58;2.60;;;20.00;99.90;;;;;;5094516;28;20236;-63
2023/06/04 08:01:51;;;;;;;4.88;2.65;;;20.00;99.90;;;;;;5093959;28;20048;-64
2023/06/04 08:04:18;;;;;;;7.78;2.85;;;20.00;99.90;;;;;;5094320;28;20456;-64
2023/06/04 08:06:44;;;;;;;5.20;2.22;;;20.00;99.90;;;;;;5094682;28;20564;-63
2023/06/04 08:09:11;;;;;;;6.90;2.50;;;19.90;99.50;;;;;;5094309;28;20109;-63
2023/06/04 08:11:40;;;;;;;6.85;3.58;;;19.90;99.60;;;;;;5094005;28;20045;-64
2023/06/04 08:14:07;;;;;;;5.78;2.40;;;19.80;99.10;;;;;;5094443;28;20138;-64
2023/06/04 08:16:33;;;;;;;5.50;2.35;;;19.70;99.30;;;;;;5094244;28;20052;-63
2023/06/04 08:18:59;;;;;;;5.53;2.17;;;19.80;99.00;;;;;;5093943;28;20044;-62
2023/06/04 08:21:27;;;;;;;6.47;2.50;;;19.90;98.90;;;;;;5093480;28;20361;-63
2023/06/04 08:23:53;;;;;;;3.92;2.50;;;20.10;98.90;;;;;;5094289;28;20059;-63
2023/06/04 08:26:19;;;;;;;4.63;2.33;;;20.20;98.60;;;;;;5093980;28;20044;-64
2023/06/04 08:28:49;;;;;;;5.30;2.40;;;20.30;98.70;;;;;;5093588;28;20047;-61
2023/06/04 08:31:16;;;;;;;5.97;2.28;;;20.30;98.70;;;;;;5094022;28;20185;-65
2023/06/04 08:33:45;;;;;;;5.45;2.60;;;20.50;98.90;;;;;;5093374;28;20048;-63
2023/06/04 08:36:12;;;;;;;5.28;2.47;;;20.60;98.60;;;;;;5093707;28;20105;-62
2023/06/04 08:38:38;;;;;;;5.43;2.40;;;20.60;98.60;;;;;;5093487;28;20051;-61
2023/06/04 08:41:20;;;;;;;5.65;2.60;;;20.60;98.60;;;;;;5093687;28;20101;-62
2023/06/04 08:43:49;;;;;;;7.35;2.80;;;20.60;98.20;;;;;;5093713;28;20060;-63
2023/06/04 08:46:17;;;;;;;6.10;2.55;;;20.70;98.50;;;;;;5093755;28;20361;-62
2023/06/04 08:48:44;;;;;;;4.13;2.50;;;20.70;98.10;;;;;;5092450;28;20055;-61
2023/06/04 08:51:11;;;;;;;4.72;2.25;;;20.70;97.90;;;;;;5092043;28;20044;-62
2023/06/04 08:53:37;;;;;;;5.40;2.08;;;20.60;97.90;;;;;;5093106;28;20101;-62
2023/06/04 08:56:04;;;;;;;5.25;2.45;;;20.50;97.80;;;;;;5092242;28;20051;-62
2023/06/04 08:58:35;;;;;;;5.45;2.08;;;20.50;97.80;;;;;;5088653;28;20048;-62
2023/06/04 09:01:02;;;;;;;5.38;2.40;;;20.60;97.50;;;;;;5092317;28;20044;-62
2023/06/04 09:03:32;;;;;;;4.47;1.98;;;20.50;97.40;;;;;;5092201;28;20251;-63
2023/06/04 09:06:00;;;;;;;7.38;2.35;;;20.40;97.40;;;;;;5075707;28;20094;-64
2023/06/04 09:08:31;;;;;;;3.67;1.95;;;20.60;97.10;;;;;;5085390;28;20044;-62
2023/06/04 09:10:57;;;;;;;3.83;2.00;;;20.60;97.20;;;;;;5093115;28;20365;-62
2023/06/04 09:13:30;;;;;;;3.88;2.10;;;20.80;97.20;;;;;;5092722;28;20403;-63
2023/06/04 09:16:03;;;;;;;4.95;1.83;;;21.00;96.80;;;;;;5095243;28;20113;-63
2023/06/04 09:18:30;;;;;;;3.83;1.80;;;21.00;95.90;;;;;;5093102;28;20051;-64
2023/06/04 09:21:03;;;;;;;5.18;2.05;;;21.00;95.90;;;;;;5093320;28;20048;-64
2023/06/04 09:23:30;;;;;;;6.05;2.20;;;21.00;95.40;;;;;;5092602;28;20074;-64
2023/06/04 09:25:56;;;;;;;5.13;1.90;;;21.00;95.60;;;;;;5092976;28;20085;-65
2023/06/04 09:28:22;;;;;;;5.50;2.13;;;21.00;95.10;;;;;;5092823;28;20043;-64
2023/06/04 09:30:55;;;;;;;4.57;2.13;;;21.00;94.80;;;;;;5092447;28;20464;-64
2023/06/04 09:33:21;;;;;;;3.50;1.70;;;21.00;95.10;;;;;;5092595;28;20059;-64
2023/06/04 09:35:55;;;;;;;4.60;1.75;;;20.90;95.10;;;;;;5092855;28;20337;-64
2023/06/04 09:38:22;;;;;;;3.17;1.73;;;20.90;94.70;;;;;;5092648;28;20056;-65
2023/06/04 09:40:49;;;;;;;6.65;2.20;;;21.00;95.00;;;;;;5092714;28;20097;-64
2023/06/04 09:43:25;;;;;;;3.53;2.05;;;21.10;94.90;;;;;;5092222;28;20125;-64
2023/06/04 09:45:52;;;;;;;5.38;2.08;;;21.20;94.30;;;;;;5092851;28;20047;-64
2023/06/04 09:48:23;;;;;;;4.53;1.90;;;21.20;94.50;;;;;;5092510;28;20059;-64
2023/06/04 09:50:49;;;;;;;3.00;1.77;;;21.10;94.40;;;;;;5092542;28;20071;-64
2023/06/04 09:53:25;;;;;;;3.28;1.80;;;21.10;94.40;;;;;;5089050;28;20535;-64
2023/06/04 09:55:58;;;;;;;4.80;1.88;;;21.30;94.30;;;;;;5072456;28;20045;-64
2023/06/04 09:58:26;;;;;;;6.75;2.20;;;21.50;94.20;;;;;;5080711;28;20040;-64
2023/06/04 10:00:55;;;;;;;3.58;1.90;;;21.30;93.50;;;;;;5075408;28;20097;-64
2023/06/04 10:03:25;;;;;;;4.20;1.92;;;21.30;93.90;;;;;;5087111;28;20060;-64
2023/06/04 10:05:53;;;;;;;3.67;1.88;;;21.40;94.10;;;;;;5089185;28;20376;-64
2023/06/04 10:08:25;;;;;;;3.58;2.00;;;21.30;94.20;;;;;;5092066;28;20460;-64
2023/06/04 10:10:54;;;;;;;;;;;21.30;93.80;;;;;;5092925;28;20494;-64
2023/06/04 10:13:22;;;;;;;4.28;1.90;;;21.30;94.20;;;;;;5090659;28;19931;-64
2023/06/04 10:15:50;;;;;;;3.35;1.85;;;21.20;94.40;;;;;;5090224;28;20070;-64
2023/06/04 10:18:17;;;;;;;5.18;2.17;;;21.50;94.10;;;;;;5089632;28;20048;-64
2023/06/04 10:20:44;;;;;;;5.55;2.00;;;21.70;93.80;;;;;;5091708;28;20460;-65
2023/06/04 10:23:11;;;;;;;4.40;2.20;;;21.80;93.90;;;;;;5091884;28;20090;-64
2023/06/04 10:25:37;;;;;;;4.68;1.92;;;21.90;93.80;;;;;;5092105;28;20707;-64
2023/06/04 10:28:04;;;;;;;3.05;1.73;;;21.80;93.10;;;;;;5091806;28;20044;-64
2023/06/04 10:30:32;;;;;;;3.30;2.10;;;21.90;92.60;;;;;;5091052;28;20055;-64
2023/06/04 10:32:59;;;;;;;4.57;2.05;;;21.90;92.50;;;;;;5082994;28;20054;-65
2023/06/04 10:35:34;;;;;;;3.95;2.30;;;22.00;92.70;;;;;;5079713;28;20056;-64
2023/06/04 10:38:09;;;;;;;5.72;2.00;;;22.10;91.90;;;;;;5087340;28;20044;-64
2023/06/04 10:40:36;;;;;;;6.50;2.25;;;22.10;91.80;;;;;;5091857;28;20064;-64
2023/06/04 10:43:10;;;;;;;3.30;1.73;;;21.80;92.10;;;;;;5091241;28;20047;-64
2023/06/04 10:45:37;;;;;;;3.45;1.95;;;22.10;92.30;;;;;;5088535;28;20138;-64
2023/06/04 10:48:05;;;;;;;5.13;1.80;;;22.20;92.50;;;;;;5086979;28;20058;-64
2023/06/04 10:50:33;;;;;;;3.72;1.98;;;22.10;92.10;;;;;;5079875;28;20079;-64
2023/06/04 10:53:03;;;;;;;4.60;1.80;;;22.30;92.40;;;;;;5077456;28;20051;-64
2023/06/04 10:55:30;;;;;;;3.95;2.00;;;22.40;92.50;;;;;;5077239;28;20114;-65
2023/06/04 10:57:58;;;;;;;3.58;2.10;;;22.60;92.40;;;;;;5091300;28;20040;-66
2023/06/04 11:00:37;;;;;;;4.97;1.73;;;22.50;92.20;;;;;;5091385;28;20044;-63
2023/06/04 11:03:07;;;;;;;4.60;1.67;;;22.60;91.70;;;;;;5090154;28;20059;-65
2023/06/04 11:05:39;;;;;;;5.68;1.80;;;22.50;92.10;;;;;;5090253;28;20479;-65
2023/06/04 11:08:06;;;;;;;3.30;1.92;;;22.70;92.00;;;;;;5089177;28;20377;-64
2023/06/04 11:10:43;;;;;;;4.13;2.25;;;22.70;92.30;;;;;;5091645;28;20048;-64
2023/06/04 11:13:10;;;;;;;4.10;1.90;;;22.80;92.00;;;;;;5091074;28;20044;-65
2023/06/04 11:15:48;;;;;;;4.82;1.92;;;22.70;92.20;;;;;;5076300;28;20113;-64
2023/06/04 11:18:18;;;;;;;4.78;1.92;;;22.70;92.00;;;;;;5091617;28;20058;-65
2023/06/04 11:20:49;;;;;;;3.65;2.00;;;22.80;92.00;;;;;;5095468;28;20056;-65
2023/06/04 11:23:16;;;;;;;6.60;1.98;;;22.80;91.90;;;;;;5083199;28;20048;-65
2023/06/04 11:25:43;;;;;;;5.03;2.03;;;22.90;92.00;;;;;;5074947;28;20078;-65
2023/06/04 11:28:17;;;;;;;4.15;2.25;;;22.80;91.70;;;;;;5080314;28;20105;-65
2023/06/04 11:30:44;;;;;;;4.45;1.70;;;22.90;91.80;;;;;;5092692;28;20060;-65
2023/06/04 11:33:10;;;;;;;4.35;1.98;;;22.90;91.70;;;;;;5079915;28;20048;-65
2023/06/04 11:35:42;;;;;;;3.10;1.90;;;23.00;91.70;;;;;;5079831;28;20110;-63
2023/06/04 11:38:09;;;;;;;4.22;1.90;;;23.00;91.30;;;;;;5079605;28;20044;-64
2023/06/04 11:40:35;;;;;;;5.10;2.10;;;23.10;91.70;;;;;;5095036;28;20051;-64
2023/06/04 11:43:02;;;;;;;3.83;1.80;;;23.20;91.40;;;;;;5094645;28;20063;-64
2023/06/04 11:45:30;;;;;;;4.43;2.20;;;23.20;91.50;;;;;;5094836;28;20063;-64
2023/06/04 11:47:57;;;;;;;3.85;1.60;;;23.30;91.40;;;;;;5094555;28;20052;-64
2023/06/04 11:50:27;;;;;;;5.13;1.98;;;23.30;91.10;;;;;;5094546;28;20040;-63
2023/06/04 11:52:54;;;;;;;3.75;1.90;;;23.20;91.10;;;;;;5094410;28;20066;-65
2023/06/04 11:55:20;;;;;;;4.32;1.90;;;23.20;91.20;;;;;;5093942;28;20247;-66
2023/06/04 11:57:48;;;;;;;3.65;1.83;;;23.30;91.00;;;;;;5094028;28;20105;-63
2023/06/04 12:00:17;;;;;;;4.55;1.98;;;23.20;91.00;;;;;;5091576;28;20475;-64
2023/06/04 12:02:53;;;;;;;3.55;2.03;;;23.30;90.70;;;;;;5094693;28;20662;-64
2023/06/04 12:05:28;;;;;;;3.83;1.80;;;23.20;90.70;;;;;;5093515;28;20051;-64
2023/06/04 12:08:09;;;;;;;4.97;1.77;;;23.10;90.70;;;;;;5091749;28;20066;-64
2023/06/04 12:10:42;;;;;;;4.28;1.85;;;23.10;90.80;;;;;;5092444;28;20050;-64
2023/06/04 12:13:10;;;;;;;3.58;1.95;;;23.10;90.30;;;;;;5092346;28;20040;-65
2023/06/04 12:15:36;;;;;;;5.65;1.92;;;23.10;90.80;;;;;;5092523;28;20055;-65
2023/06/04 12:18:04;;;;;;;3.75;1.83;;;23.10;90.70;;;;;;5091238;28;20350;-64
2023/06/04 12:20:35;;;;;;;4.55;1.80;;;23.20;90.40;;;;;;5091897;28;20478;-65
2023/06/04 12:23:03;;;;;;;3.30;1.95;;;23.30;90.40;;;;;;5091560;28;20059;-65
2023/06/04 12:25:30;;;;;;;2.78;1.88;;;23.30;90.40;;;;;;5094218;28;20044;-64
2023/06/04 12:27:57;;;;;;;3.95;2.00;;;23.40;90.00;;;;;;5093814;28;20052;-65
2023/06/04 12:30:38;;;;;;;3.10;1.80;;;23.50;90.10;;;;;;5093864;28;20060;-64
2023/06/04 12:33:04;;;;;;;2.95;1.80;;;23.60;89.40;;;;;;5093431;28;20075;-65
2023/06/04 12:35:30;;;;;;;3.85;1.90;;;23.60;89.70;;;;;;5093558;28;20051;-65
2023/06/04 12:37:56;;;;;;;3.88;2.00;;;23.50;89.70;;;;;;5093243;28;21535;-66
2023/06/04 12:40:23;;;;;;;4.00;1.80;;;23.40;89.50;;;;;;5093629;28;20067;-64
2023/06/04 12:42:52;;;;;;;2.55;1.70;;;23.30;89.00;;;;;;5093108;28;20048;-64
2023/06/04 12:45:18;;;;;;;5.93;2.20;;;23.30;89.20;;;;;;5093856;28;20043;-64
2023/06/04 12:47:46;;;;;;;3.05;1.70;;;23.40;89.70;;;;;;5093176;28;20062;-63